Time;durP1;ratioP1;P1;durP2;ratioP2;P2;SDS_P1;SDS_P2;PMS_P1;PMS_P2;Temp;Humidity;BMP_temperature;BMP_pressure;BME280_temperature;BME280_humidity;BME280_pressure;Samples;Min_cycle;Max_cycle;Signal;HPM_P1;HPM_P2
2022/04/06 00:00:11;;;;;;;;;;;10.60;64.00;;;;;;4950124;28;86793;-56
2022/04/06 00:02:40;;;;;;;;;;;10.60;64.00;;;;;;4947370;28;87099;-52
2022/04/06 00:05:10;;;;;;;;;;;10.60;63.90;;;;;;4947510;28;86927;-54
2022/04/06 00:07:39;;;;;;;;;;;10.60;63.90;;;;;;4946518;28;88658;-55
2022/04/06 00:10:05;;;;;;;;;;;10.60;63.90;;;;;;4947443;28;87030;-52
2022/04/06 00:12:31;;;;;;;;;;;10.60;63.90;;;;;;4946599;28;88533;-52
2022/04/06 00:14:57;;;;;;;;;;;10.50;63.90;;;;;;4946779;28;88558;-53
2022/04/06 00:17:22;;;;;;;;;;;10.50;63.90;;;;;;4947463;28;86920;-52
2022/04/06 00:19:48;;;;;;;;;;;10.50;63.90;;;;;;4947465;28;86884;-53
2022/04/06 00:22:14;;;;;;;;;;;10.50;63.90;;;;;;4949534;28;87498;-52
2022/04/06 00:24:39;;;;;;;;;;;10.50;63.90;;;;;;4947310;28;87290;-52
2022/04/06 00:27:05;;;;;;;;;;;10.50;64.00;;;;;;4946852;28;87468;-55
2022/04/06 00:29:31;;;;;;;;;;;10.50;64.00;;;;;;4947812;28;86356;-52
2022/04/06 00:31:56;;;;;;;;;;;10.50;64.00;;;;;;4947069;28;87187;-54
2022/04/06 00:35:28;;;;;;;;;;;10.50;64.00;;;;;;4946621;28;87434;-53
2022/04/06 00:37:08;;;;;;;;;;;10.40;64.00;;;;;;4946316;28;88380;-55
2022/04/06 00:39:34;;;;;;;;;;;10.40;64.00;;;;;;4947209;28;87712;-55
2022/04/06 00:41:59;;;;;;;;;;;10.40;64.00;;;;;;4946705;28;87629;-54
2022/04/06 00:44:27;;;;;;;;;;;10.40;64.00;;;;;;4949996;28;86889;-54
2022/04/06 00:46:54;;;;;;;;;;;10.30;64.00;;;;;;4946481;28;88473;-52
2022/04/06 00:49:20;;;;;;;;;;;10.30;64.10;;;;;;4947037;28;86870;-54
2022/04/06 00:51:47;;;;;;;;;;;10.30;64.10;;;;;;4947109;28;87084;-53
2022/04/06 00:54:17;;;;;;;;;;;10.30;64.10;;;;;;4946755;28;88050;-53
2022/04/06 00:56:43;;;;;;;;;;;10.30;64.10;;;;;;4949217;28;86916;-52
2022/04/06 00:59:09;;;;;;;;;;;10.30;64.10;;;;;;4950226;28;87922;-52
2022/04/06 01:01:36;;;;;;;;;;;10.20;64.10;;;;;;4949056;28;89473;-52
2022/04/06 01:04:03;;;;;;;;;;;10.20;64.20;;;;;;4950053;28;86957;-53
2022/04/06 01:06:28;;;;;;;;;;;10.20;64.20;;;;;;4952609;28;87376;-52
2022/04/06 01:08:54;;;;;;;;;;;10.20;64.20;;;;;;4950001;28;87103;-52
2022/04/06 01:11:20;;;;;;;;;;;10.20;64.20;;;;;;4950022;28;87876;-52
2022/04/06 01:13:46;;;;;;;;;;;10.20;64.20;;;;;;4949474;28;88312;-53
2022/04/06 01:16:12;;;;;;;;;;;10.20;64.20;;;;;;4949853;28;87090;-53
2022/04/06 01:18:38;;;;;;;;;;;10.10;64.20;;;;;;4950378;28;88004;-52
2022/04/06 01:21:04;;;;;;;;;;;10.10;64.20;;;;;;4949426;28;88699;-52
2022/04/06 01:23:30;;;;;;;;;;;10.10;64.20;;;;;;4949792;28;87272;-53
2022/04/06 01:25:56;;;;;;;;;;;10.10;64.20;;;;;;4949125;28;87911;-52
2022/04/06 01:28:21;;;;;;;;;;;10.10;64.20;;;;;;4952188;28;87767;-52
2022/04/06 01:30:47;;;;;;;;;;;10.10;64.30;;;;;;4949803;28;86953;-55
2022/04/06 01:33:13;;;;;;;;;;;10.10;64.20;;;;;;4949261;28;88243;-52
2022/04/06 01:35:41;;;;;;;;;;;10.00;64.20;;;;;;4949668;28;86904;-52
2022/04/06 01:38:06;;;;;;;;;;;10.10;64.20;;;;;;4948953;28;87188;-54
2022/04/06 01:40:33;;;;;;;;;;;10.00;64.20;;;;;;4949460;28;87567;-53
2022/04/06 01:42:59;;;;;;;;;;;10.00;64.30;;;;;;4949842;28;86150;-52
2022/04/06 01:45:24;;;;;;;;;;;10.00;64.30;;;;;;4949558;28;87441;-53
2022/04/06 01:47:50;;;;;;;;;;;10.00;64.30;;;;;;4951908;28;88554;-52
2022/04/06 01:53:00;;;;;;;;;;;9.90;64.20;;;;;;4949253;28;87216;-51
2022/04/06 01:55:26;;;;;;;;;;;10.00;64.30;;;;;;4949248;28;86815;-53
2022/04/06 01:57:51;;;;;;;;;;;10.00;64.20;;;;;;4949316;28;88025;-51
2022/04/06 02:00:17;;;;;;;;;;;9.90;64.20;;;;;;4948780;28;88669;-51
2022/04/06 02:02:53;;;;;;;;;;;9.90;64.30;;;;;;4949586;28;86922;-52
2022/04/06 02:05:20;;;;;;;;;;;9.90;64.30;;;;;;4949466;28;86873;-51
2022/04/06 02:07:48;;;;;;;;;;;9.90;64.30;;;;;;4948297;28;86763;-51
2022/04/06 02:10:15;;;;;;;;;;;9.90;64.30;;;;;;4951901;28;87004;-51
2022/04/06 02:12:41;;;;;;;;;;;9.80;64.20;;;;;;4948702;28;88376;-53
2022/04/06 02:15:09;;;;;;;;;;;9.80;64.30;;;;;;4948538;28;87957;-51
2022/04/06 02:17:35;;;;;;;;;;;9.80;64.30;;;;;;4949081;28;87977;-51
2022/04/06 02:20:00;;;;;;;;;;;9.80;64.30;;;;;;4948602;28;87736;-51
2022/04/06 02:22:26;;;;;;;;;;;9.80;64.40;;;;;;4949147;28;86856;-52
2022/04/06 02:24:52;;;;;;;;;;;9.80;64.40;;;;;;4948837;28;88337;-52
2022/04/06 02:27:17;;;;;;;;;;;9.70;64.30;;;;;;4948377;28;87662;-51
2022/04/06 02:29:43;;;;;;;;;;;9.70;64.30;;;;;;4948891;28;86946;-51
2022/04/06 02:32:09;;;;;;;;;;;9.70;64.30;;;;;;4952011;28;86798;-52
2022/04/06 02:34:35;;;;;;;;;;;9.70;64.30;;;;;;4948006;28;86814;-51
2022/04/06 02:37:02;;;;;;;;;;;9.70;64.40;;;;;;4948676;28;88047;-52
2022/04/06 02:39:27;;;;;;;;;;;9.70;64.40;;;;;;4947912;28;88646;-51
2022/04/06 02:41:53;;;;;;;;;;;9.70;64.40;;;;;;4948601;28;87115;-52
2022/04/06 02:44:19;;;;;;;;;;;9.70;64.40;;;;;;4948954;28;86875;-53
2022/04/06 02:46:45;;;;;;;;;;;9.60;64.30;;;;;;4948178;28;86968;-52
2022/04/06 02:49:12;;;;;;;;;;;9.60;64.30;;;;;;4948744;28;86890;-51
2022/04/06 02:51:38;;;;;;;;;;;9.60;64.30;;;;;;4948441;28;88066;-52
2022/04/06 02:54:04;;;;;;;;;;;9.60;64.30;;;;;;4950803;28;88569;-51
2022/04/06 02:56:29;;;;;;;;;;;9.60;64.30;;;;;;4948832;28;87284;-51
2022/04/06 02:58:55;;;;;;;;;;;9.60;64.20;;;;;;4948231;28;87397;-52
2022/04/06 03:01:21;;;;;;;;;;;9.60;64.30;;;;;;4947804;28;87099;-51
2022/04/06 03:03:46;;;;;;;;;;;9.60;64.30;;;;;;4947729;28;88131;-51
2022/04/06 03:06:12;;;;;;;;;;;9.50;64.20;;;;;;4947913;28;87515;-51
2022/04/06 03:08:38;;;;;;;;;;;9.50;64.10;;;;;;4948319;28;86792;-51
2022/04/06 03:11:04;;;;;;;;;;;9.60;64.20;;;;;;4948226;28;87061;-52
2022/04/06 03:13:29;;;;;;;;;;;9.50;64.20;;;;;;4947876;28;87427;-52
2022/04/06 03:15:55;;;;;;;;;;;9.50;64.30;;;;;;4951218;28;86862;-52
2022/04/06 03:18:21;;;;;;;;;;;9.50;64.20;;;;;;4947013;28;86989;-51
2022/04/06 03:20:47;;;;;;;;;;;9.50;64.20;;;;;;4948606;28;86055;-52
2022/04/06 03:23:14;;;;;;;;;;;9.50;64.30;;;;;;4948010;28;87360;-51
2022/04/06 03:25:39;;;;;;;;;;;9.40;64.30;;;;;;4947557;28;88662;-52
2022/04/06 03:28:05;;;;;;;;;;;9.40;64.30;;;;;;4947491;28;87813;-51
2022/04/06 03:30:31;;;;;;;;;;;9.40;64.30;;;;;;4948171;28;86990;-52
2022/04/06 03:32:56;;;;;;;;;;;9.40;64.30;;;;;;4947401;28;88483;-52
2022/04/06 03:35:22;;;;;;;;;;;9.40;64.40;;;;;;4947965;28;86967;-51
2022/04/06 03:37:50;;;;;;;;;;;9.40;64.30;;;;;;4950254;28;88035;-51
2022/04/06 03:40:15;;;;;;;;;;;9.30;64.30;;;;;;4947725;28;86849;-52
2022/04/06 03:42:41;;;;;;;;;;;9.30;64.30;;;;;;4947715;28;87987;-53
2022/04/06 03:45:07;;;;;;;;;;;9.30;64.30;;;;;;4947812;28;87762;-52
2022/04/06 03:47:33;;;;;;;;;;;9.30;64.20;;;;;;4947608;28;87015;-51
2022/04/06 03:50:00;;;;;;;;;;;9.30;64.20;;;;;;4947536;28;88247;-51
2022/04/06 03:52:27;;;;;;;;;;;9.30;64.20;;;;;;4946594;28;89388;-52
2022/04/06 03:54:52;;;;;;;;;;;9.20;64.20;;;;;;4947291;28;86975;-51
2022/04/06 03:57:18;;;;;;;;;;;9.30;64.30;;;;;;4950238;28;86852;-52
2022/04/06 03:59:44;;;;;;;;;;;9.30;64.30;;;;;;4947422;28;86967;-52
2022/04/06 04:02:10;;;;;;;;;;;9.20;64.20;;;;;;4947606;28;86920;-51
2022/04/06 04:04:36;;;;;;;;;;;9.20;64.20;;;;;;4947210;28;86911;-51
2022/04/06 04:07:01;;;;;;;;;;;9.20;64.30;;;;;;4946927;28;86998;-52
2022/04/06 04:09:30;;;;;;;;;;;9.20;64.30;;;;;;4947722;28;87874;-52
2022/04/06 04:11:56;;;;;;;;;;;9.20;64.20;;;;;;4946905;28;88557;-51
2022/04/06 04:14:22;;;;;;;;;;;9.20;64.20;;;;;;4947170;28;86904;-52
2022/04/06 04:16:48;;;;;;;;;;;9.10;64.20;;;;;;4946612;28;87835;-51
2022/04/06 04:19:15;;;;;;;;;;;9.10;64.20;;;;;;4949596;28;88611;-52
2022/04/06 04:21:41;;;;;;;;;;;9.10;64.10;;;;;;4947236;28;87854;-52
2022/04/06 04:24:10;;;;;;;;;;;9.10;64.10;;;;;;4946806;28;88496;-52
2022/04/06 04:26:36;;;;;;;;;;;9.10;64.20;;;;;;4947121;28;86985;-52
2022/04/06 04:29:07;;;;;;;;;;;9.10;64.10;;;;;;4947112;28;88059;-51
2022/04/06 04:31:33;;;;;;;;;;;9.10;64.10;;;;;;4948757;28;86921;-52
2022/04/06 04:33:59;;;;;;;;;;;9.10;64.10;;;;;;4950619;28;86196;-52
2022/04/06 04:36:24;;;;;;;;;;;9.00;64.10;;;;;;4950762;28;86883;-52
2022/04/06 04:38:50;;;;;;;;;;;9.00;64.10;;;;;;4950069;28;88408;-52
2022/04/06 04:41:17;;;;;;;;;;;9.00;64.10;;;;;;4952977;28;87837;-52
2022/04/06 04:43:42;;;;;;;;;;;9.00;64.10;;;;;;4949956;28;87671;-52
2022/04/06 04:46:08;;;;;;;;;;;9.00;64.10;;;;;;4950391;28;86754;-52
2022/04/06 04:48:34;;;;;;;;;;;9.00;64.10;;;;;;4950237;28;86857;-52
2022/04/06 04:50:59;;;;;;;;;;;9.00;64.10;;;;;;4950158;28;87517;-52
2022/04/06 04:53:25;;;;;;;;;;;9.00;64.10;;;;;;4950160;28;86868;-52
2022/04/06 04:55:51;;;;;;;;;;;9.00;64.10;;;;;;4950327;28;88039;-52
2022/04/06 04:58:17;;;;;;;;;;;9.00;64.30;;;;;;4950285;28;87688;-52
2022/04/06 05:00:42;;;;;;;;;;;8.90;64.20;;;;;;4950409;28;86946;-52
2022/04/06 05:03:08;;;;;;;;;;;8.90;64.10;;;;;;4952560;28;88016;-52
2022/04/06 05:05:39;;;;;;;;;;;8.90;64.20;;;;;;4949474;28;87811;-52
2022/04/06 05:08:06;;;;;;;;;;;8.90;64.20;;;;;;4949581;28;88748;-52
2022/04/06 05:10:32;;;;;;;;;;;8.90;64.20;;;;;;4948910;28;88490;-52
2022/04/06 05:12:57;;;;;;;;;;;8.90;64.20;;;;;;4950096;28;86957;-52
2022/04/06 05:15:23;;;;;;;;;;;8.90;64.20;;;;;;4950184;28;86893;-52
2022/04/06 05:17:49;;;;;;;;;;;8.90;64.20;;;;;;4949430;28;87544;-52
2022/04/06 05:20:15;;;;;;;;;;;8.80;64.30;;;;;;4950080;28;87079;-52
2022/04/06 05:22:41;;;;;;;;;;;8.80;64.20;;;;;;4949833;28;86948;-52
2022/04/06 05:25:10;;;;;;;;;;;8.90;64.10;;;;;;4952184;28;88548;-52
2022/04/06 05:27:48;;;;;;;;;;;8.80;64.20;;;;;;4949803;28;87930;-52
2022/04/06 05:30:16;;;;;;;;;;;8.80;64.20;;;;;;4947954;28;88777;-51
2022/04/06 05:32:43;;;;;;;;;;;8.80;64.20;;;;;;4949874;28;87124;-52
2022/04/06 05:35:09;;;;;;;;;;;8.80;64.20;;;;;;4949750;28;87063;-52
2022/04/06 05:37:38;;;;;;;;;;;8.80;64.00;;;;;;4949137;28;88664;-52
2022/04/06 05:40:04;;;;;;;;;;;8.80;64.20;;;;;;4949772;28;86871;-52
2022/04/06 05:42:30;;;;;;;;;;;8.80;64.10;;;;;;4949389;28;86890;-52
2022/04/06 05:44:56;;;;;;;;;;;8.80;64.10;;;;;;4949017;28;87507;-52
2022/04/06 05:47:22;;;;;;;;;;;8.80;64.20;;;;;;4952664;28;86143;-52
2022/04/06 05:49:48;;;;;;;;;;;8.80;64.10;;;;;;4948975;28;88409;-52
2022/04/06 05:52:14;;;;;;;;;;;8.80;64.20;;;;;;4949390;28;86936;-52
2022/04/06 05:54:40;;;;;;;;;;;8.80;64.20;;;;;;4948856;28;87876;-52
2022/04/06 05:57:05;;;;;;;;;;;8.80;64.20;;;;;;4947964;28;86989;-52
2022/04/06 05:59:31;;;;;;;;;;;8.80;64.10;;;;;;4949222;28;86861;-52
2022/04/06 06:01:57;;;;;;;;;;;8.80;64.10;;;;;;4949160;28;86969;-52
2022/04/06 06:04:22;;;;;;;;;;;8.80;64.20;;;;;;4949077;28;86914;-52
2022/04/06 06:06:48;;;;;;;;;;;8.80;64.10;;;;;;4951799;28;86852;-52
2022/04/06 06:09:14;;;;;;;;;;;8.80;64.20;;;;;;4948234;28;87546;-52
2022/04/06 06:11:41;;;;;;;;;;;8.80;64.20;;;;;;4949676;28;86303;-52
2022/04/06 06:14:06;;;;;;;;;;;8.80;64.20;;;;;;4948937;28;87322;-52
2022/04/06 06:16:32;;;;;;;;;;;8.80;64.30;;;;;;4948648;28;88266;-52
2022/04/06 06:18:58;;;;;;;;;;;8.80;64.10;;;;;;4949180;28;87981;-51
2022/04/06 06:21:26;;;;;;;;;;;8.80;64.20;;;;;;4948934;28;89166;-51
2022/04/06 06:23:53;;;;;;;;;;;8.80;64.20;;;;;;4948511;28;87422;-52
2022/04/06 06:26:19;;;;;;;;;;;8.80;64.20;;;;;;4948800;28;86888;-52
2022/04/06 06:28:45;;;;;;;;;;;8.80;64.20;;;;;;4951578;28;87365;-52
2022/04/06 06:31:10;;;;;;;;;;;8.80;64.10;;;;;;4949067;28;86947;-51
2022/04/06 06:33:36;;;;;;;;;;;8.80;64.20;;;;;;4949010;28;86859;-51
2022/04/06 06:36:02;;;;;;;;;;;8.80;64.20;;;;;;4949196;28;86354;-52
2022/04/06 06:38:27;;;;;;;;;;;8.80;64.30;;;;;;4948911;28;86970;-52
2022/04/06 06:40:53;;;;;;;;;;;8.80;64.30;;;;;;4948645;28;86988;-52
2022/04/06 06:43:19;;;;;;;;;;;8.80;64.20;;;;;;4947761;28;88952;-52
2022/04/06 06:45:45;;;;;;;;;;;8.70;64.40;;;;;;4948579;28;87243;-52
2022/04/06 06:48:10;;;;;;;;;;;8.80;64.40;;;;;;4948450;28;88068;-52
2022/04/06 06:50:37;;;;;;;;;;;8.80;64.30;;;;;;4950963;28;87993;-52
2022/04/06 06:53:03;;;;;;;;;;;8.80;64.30;;;;;;4948125;28;86853;-52
2022/04/06 06:55:29;;;;;;;;;;;8.80;64.30;;;;;;4947990;28;88422;-52
2022/04/06 06:57:54;;;;;;;;;;;8.90;64.20;;;;;;4948236;28;86977;-54
2022/04/06 07:00:20;;;;;;;;;;;8.80;64.20;;;;;;4948808;28;87830;-52
2022/04/06 07:02:46;;;;;;;;;;;8.80;64.20;;;;;;4947873;28;88391;-52
2022/04/06 07:05:12;;;;;;;;;;;8.80;64.20;;;;;;4948233;28;86863;-52
2022/04/06 07:07:50;;;;;;;;;;;8.80;64.20;;;;;;4947204;28;88069;-52
2022/04/06 07:10:16;;;;;;;;;;;8.80;64.30;;;;;;4947826;28;87423;-52
2022/04/06 07:12:42;;;;;;;;;;;8.90;64.30;;;;;;4950986;28;86888;-51
2022/04/06 07:15:08;;;;;;;;;;;8.80;64.30;;;;;;4947829;28;87330;-52
2022/04/06 07:17:33;;;;;;;;;;;8.80;64.20;;;;;;4948149;28;87139;-52
2022/04/06 07:19:59;;;;;;;;;;;8.80;64.30;;;;;;4947894;28;87889;-52
2022/04/06 07:22:25;;;;;;;;;;;8.80;64.20;;;;;;4947805;28;87459;-53
2022/04/06 07:24:50;;;;;;;;;;;8.90;64.20;;;;;;4948503;28;86242;-52
2022/04/06 07:27:16;;;;;;;;;;;8.80;64.20;;;;;;4947941;28;86828;-52
2022/04/06 07:29:43;;;;;;;;;;;8.90;64.20;;;;;;4946912;28;86853;-52
2022/04/06 07:32:09;;;;;;;;;;;8.90;64.20;;;;;;4947499;28;87901;-52
2022/04/06 07:34:35;;;;;;;;;;;8.90;64.20;;;;;;4950284;28;88981;-52
2022/04/06 07:37:01;;;;;;;;;;;8.90;64.20;;;;;;4947916;28;86895;-52
2022/04/06 07:39:27;;;;;;;;;;;8.90;64.20;;;;;;4947741;28;87979;-54
2022/04/06 07:41:56;;;;;;;;;;;8.90;64.20;;;;;;4947388;28;87675;-52
2022/04/06 07:44:22;;;;;;;;;;;8.90;64.80;;;;;;4947661;28;87091;-53
2022/04/06 07:46:48;;;;;;;;;;;8.90;64.20;;;;;;4947395;28;87057;-52
2022/04/06 07:49:14;;;;;;;;;;;8.90;64.20;;;;;;4947598;28;87888;-52
2022/04/06 07:51:40;;;;;;;;;;;8.90;64.20;;;;;;4947713;28;87204;-53
2022/04/06 07:54:06;;;;;;;;;;;8.90;64.20;;;;;;4949969;28;88159;-52
2022/04/06 07:56:31;;;;;;;;;;;8.90;64.30;;;;;;4946899;28;88179;-52
2022/04/06 07:58:57;;;;;;;;;;;8.90;64.30;;;;;;4947410;28;88803;-52
2022/04/06 08:01:23;;;;;;;;;;;8.90;64.30;;;;;;4947042;28;88684;-52
2022/04/06 08:03:48;;;;;;;;;;;8.90;64.30;;;;;;4947629;28;86914;-52
2022/04/06 08:06:14;;;;;;;;;;;8.90;64.30;;;;;;4946392;28;86975;-54
2022/04/06 08:08:39;;;;;;;;;;;8.90;64.40;;;;;;4947142;28;87634;-53
2022/04/06 08:11:05;;;;;;;;;;;8.90;64.30;;;;;;4947276;28;86876;-57
2022/04/06 08:13:32;;;;;;;;;;;8.90;64.30;;;;;;4947843;28;87793;-56
2022/04/06 08:15:58;;;;;;;;;;;8.90;64.30;;;;;;4949692;28;88429;-52
2022/04/06 08:18:24;;;;;;;;;;;9.00;64.40;;;;;;4946662;28;86922;-56
2022/04/06 08:20:50;;;;;;;;;;;8.90;64.40;;;;;;4946205;28;89489;-52
2022/04/06 08:23:21;;;;;;;;;;;8.90;64.30;;;;;;4947279;28;87017;-56
2022/04/06 08:25:56;;;;;;;;;;;9.00;64.40;;;;;;4946613;28;87004;-52
2022/04/06 08:28:21;;;;;;;;;;;9.00;64.40;;;;;;4946684;28;88833;-52
2022/04/06 08:30:47;;;;;;;;;;;9.00;64.40;;;;;;4947021;28;86917;-53
2022/04/06 08:33:13;;;;;;;;;;;9.00;64.40;;;;;;4946979;28;87380;-55
2022/04/06 08:35:40;;;;;;;;;;;9.00;64.40;;;;;;4946549;28;88648;-52
2022/04/06 08:38:07;;;;;;;;;;;9.00;64.50;;;;;;4950423;28;86277;-52
2022/04/06 08:40:35;;;;;;;;;;;9.00;64.50;;;;;;4946626;28;88354;-52
2022/04/06 08:43:07;;;;;;;;;;;9.00;64.50;;;;;;4947015;28;86807;-52
2022/04/06 08:45:33;;;;;;;;;;;9.00;64.50;;;;;;4946599;28;88001;-54
2022/04/06 08:47:59;;;;;;;;;;;9.00;64.50;;;;;;4946552;28;88429;-52
2022/04/06 08:50:27;;;;;;;;;;;9.00;64.50;;;;;;4946753;28;87164;-52
2022/04/06 08:52:53;;;;;;;;;;;9.00;64.50;;;;;;4947204;28;86772;-52
2022/04/06 08:55:19;;;;;;;;;;;9.00;64.50;;;;;;4946650;28;87477;-55
2022/04/06 08:57:44;;;;;;;;;;;9.00;64.50;;;;;;4946866;28;87176;-54
2022/04/06 09:00:12;;;;;;;;;;;9.00;64.50;;;;;;4949437;28;86876;-56
2022/04/06 09:02:40;;;;;;;;;;;9.10;64.50;;;;;;4947188;28;86161;-54
2022/04/06 09:05:07;;;;;;;;;;;9.10;64.50;;;;;;4946776;28;87246;-55
2022/04/06 09:07:33;;;;;;;;;;;9.10;64.40;;;;;;4945848;28;88643;-53
2022/04/06 09:09:59;;;;;;;;;;;9.10;64.40;;;;;;4945946;28;87955;-52
2022/04/06 09:12:25;;;;;;;;;;;9.10;64.50;;;;;;4946594;28;88744;-52
2022/04/06 09:15:11;;;;;;;;;;;9.10;64.50;;;;;;4946155;28;88402;-52
2022/04/06 09:17:44;;;;;;;;;;;9.10;64.50;;;;;;4948326;28;87082;-52
2022/04/06 09:20:13;;;;;;;;;;;9.10;64.60;;;;;;4949845;28;87928;-53
2022/04/06 09:22:39;;;;;;;;;;;9.20;64.60;;;;;;4952344;28;87672;-54
2022/04/06 09:25:05;;;;;;;;;;;9.20;65.10;;;;;;4949764;28;87832;-53
2022/04/06 09:27:33;;;;;;;;;;;9.20;64.70;;;;;;4949874;28;86782;-53
2022/04/06 09:30:02;;;;;;;;;;;9.20;64.90;;;;;;4949968;28;86892;-55
2022/04/06 09:32:28;;;;;;;;;;;9.30;64.70;;;;;;4949773;28;87189;-54
2022/04/06 09:34:54;;;;;;;;;;;9.30;65.10;;;;;;4948716;28;88414;-52
2022/04/06 09:37:27;;;;;;;;;;;9.20;64.80;;;;;;4949612;28;87094;-54
2022/04/06 09:39:53;;;;;;;;;;;9.30;64.50;;;;;;4949745;28;87112;-52
2022/04/06 09:42:26;;;;;;;;;;;9.30;64.60;;;;;;4949196;28;88579;-52
2022/04/06 09:47:40;;;;;;;;;;;9.30;64.50;;;;;;4946142;28;87125;-52
2022/04/06 09:50:08;;;;;;;;;;;9.30;64.60;;;;;;4949423;28;87079;-52
2022/04/06 09:52:38;;;;;;;;;;;9.40;64.60;;;;;;4949893;28;86938;-52
2022/04/06 09:55:08;;;;;;;;;;;9.40;64.50;;;;;;4949163;28;87463;-52
2022/04/06 09:57:42;;;;;;;;;;;9.40;64.70;;;;;;4949232;28;87240;-52
2022/04/06 10:00:10;;;;;;;;;;;9.40;64.90;;;;;;4948761;28;88196;-52
2022/04/06 10:02:36;;;;;;;;;;;9.40;64.70;;;;;;4948910;28;88629;-52
2022/04/06 10:05:03;;;;;;;;;;;9.50;64.60;;;;;;4952010;28;87145;-52
2022/04/06 10:07:29;;;;;;;;;;;9.50;64.60;;;;;;4948383;28;88330;-52
2022/04/06 10:09:56;;;;;;;;;;;9.50;64.60;;;;;;4949120;28;87043;-52
2022/04/06 10:12:21;;;;;;;;;;;9.50;64.60;;;;;;4949211;28;86903;-52
2022/04/06 10:14:47;;;;;;;;;;;9.50;64.50;;;;;;4948819;28;86871;-52
2022/04/06 10:17:13;;;;;;;;;;;9.60;64.70;;;;;;4949726;28;86129;-52
2022/04/06 10:19:41;;;;;;;;;;;9.60;64.60;;;;;;4949325;28;86915;-52
2022/04/06 10:22:16;;;;;;;;;;;9.60;64.60;;;;;;4948492;28;88334;-52
2022/04/06 10:24:55;;;;;;;;;;;9.60;64.70;;;;;;4948180;28;87797;-52
2022/04/06 10:27:25;;;;;;;;;;;9.60;64.70;;;;;;4951177;28;88924;-52
2022/04/06 10:30:11;;;;;;;;;;;9.70;64.70;;;;;;4948175;28;86847;-53
2022/04/06 10:32:37;;;;;;;;;;;9.70;64.60;;;;;;4949221;28;86887;-52
2022/04/06 10:35:24;;;;;;;;;;;9.70;64.60;;;;;;4948213;28;88492;-53
2022/04/06 10:37:53;;;;;;;;;;;9.70;64.50;;;;;;4948347;28;87183;-52
2022/04/06 10:40:19;;;;;;;;;;;9.70;64.60;;;;;;4948619;28;88014;-53
2022/04/06 10:42:46;;;;;;;;;;;9.80;64.60;;;;;;4948652;28;86958;-52
2022/04/06 10:45:27;;;;;;;;;;;9.80;64.60;;;;;;4948528;28;86946;-52
2022/04/06 10:48:09;;;;;;;;;;;9.80;64.60;;;;;;4947742;28;86874;-53
2022/04/06 10:50:35;;;;;;;;;;;9.90;64.60;;;;;;4950404;28;89545;-53
2022/04/06 10:53:19;;;;;;;;;;;9.90;64.60;;;;;;4948517;28;88068;-52
2022/04/06 10:56:12;;;;;;;;;;;9.90;64.50;;;;;;4947386;28;87890;-52
2022/04/06 10:58:56;;;;;;;;;;;9.90;64.60;;;;;;4948349;28;86933;-52
2022/04/06 11:01:32;;;;;;;;;;;10.00;64.50;;;;;;4948372;28;86898;-55
2022/04/06 11:04:03;;;;;;;;;;;10.00;65.10;;;;;;4947974;28;88694;-53
2022/04/06 11:06:52;;;;;;;;;;;10.00;64.50;;;;;;4948305;28;87035;-54
2022/04/06 11:12:16;;;;;;;;;;;10.10;64.60;;;;;;4909346;28;87178;-52
2022/04/06 11:14:44;;;;;;;;;;;10.10;64.60;;;;;;4912229;28;86983;-52
2022/04/06 11:17:30;;;;;;;;;;;10.10;64.50;;;;;;4908493;28;89552;-52
2022/04/06 11:19:55;;;;;;;;;;;10.10;64.50;;;;;;4909430;28;86793;-53
2022/04/06 11:22:21;;;;;;;;;;;10.20;64.50;;;;;;4909397;28;87060;-52
2022/04/06 11:24:47;;;;;;;;;;;10.20;64.50;;;;;;4908956;28;88503;-52
2022/04/06 11:27:33;;;;;;;;;;;10.20;65.10;;;;;;4909366;28;86886;-52
2022/04/06 11:30:01;;;;;;;;;;;10.30;64.40;;;;;;4909042;28;87087;-52
2022/04/06 11:32:27;;;;;;;;;;;10.30;64.50;;;;;;4908750;28;88510;-52
2022/04/06 11:34:58;;;;;;;;;;;10.30;64.50;;;;;;4909614;28;86360;-52
2022/04/06 11:37:23;;;;;;;;;;;10.30;64.40;;;;;;4911683;28;87417;-53
2022/04/06 11:39:49;;;;;;;;;;;10.40;64.40;;;;;;4909020;28;86865;-52
2022/04/06 11:42:16;;;;;;;;;;;10.40;64.30;;;;;;4908498;28;88218;-52
2022/04/06 11:44:43;;;;;;;;;;;10.40;64.30;;;;;;4908705;28;88531;-52
2022/04/06 11:47:08;;;;;;;;;;;10.40;64.30;;;;;;4908908;28;86781;-54
2022/04/06 11:49:35;;;;;;;;;;;10.50;64.40;;;;;;4909026;28;88077;-53
2022/04/06 11:52:01;;;;;;;;;;;10.50;64.40;;;;;;4908619;28;88719;-52
2022/04/06 11:54:27;;;;;;;;;;;10.50;64.40;;;;;;4908909;28;87060;-52
2022/04/06 11:56:54;;;;;;;;;;;10.50;64.40;;;;;;4908972;28;87286;-52
2022/04/06 11:59:21;;;;;;;;;;;10.60;64.30;;;;;;4911802;28;88070;-52
2022/04/06 12:01:47;;;;;;;;;;;10.60;64.30;;;;;;4908909;28;87109;-52
2022/04/06 12:04:16;;;;;;;;;;;10.70;64.30;;;;;;4908484;28;88752;-52
2022/04/06 12:06:42;;;;;;;;;;;10.60;64.20;;;;;;4909746;28;87880;-53
2022/04/06 12:09:08;;;;;;;;;;;10.70;64.20;;;;;;4947423;28;88645;-53
2022/04/06 12:11:37;;;;;;;;;;;10.70;64.20;;;;;;4946995;28;88248;-52
2022/04/06 12:14:03;;;;;;;;;;;10.70;64.10;;;;;;4947250;28;86960;-52
2022/04/06 12:16:29;;;;;;;;;;;10.80;64.20;;;;;;4947207;28;87110;-52
2022/04/06 12:18:55;;;;;;;;;;;10.80;64.10;;;;;;4949730;28;88541;-52
2022/04/06 12:21:22;;;;;;;;;;;10.80;64.10;;;;;;4947183;28;88036;-52
2022/04/06 12:23:48;;;;;;;;;;;10.90;64.10;;;;;;4947358;28;87977;-52
2022/04/06 12:26:15;;;;;;;;;;;10.90;64.00;;;;;;4947049;28;86909;-52
2022/04/06 12:28:43;;;;;;;;;;;10.90;64.00;;;;;;4947129;28;88168;-53
2022/04/06 12:31:10;;;;;;;;;;;10.90;63.90;;;;;;4946053;28;89514;-52
2022/04/06 12:33:50;;;;;;;;;;;11.00;64.00;;;;;;4946950;28;86923;-52
2022/04/06 12:36:24;;;;;;;;;;;11.00;64.00;;;;;;4946997;28;87888;-53
2022/04/06 12:39:14;;;;;;;;;;;11.00;64.00;;;;;;4946579;28;87575;-52
2022/04/06 12:42:01;;;;;;;;;;;11.10;64.00;;;;;;4949771;28;86923;-52
2022/04/06 12:44:28;;;;;;;;;;;11.10;63.90;;;;;;4946690;28;87476;-52
2022/04/06 12:46:54;;;;;;;;;;;11.10;63.90;;;;;;4947139;28;87049;-52
2022/04/06 12:49:35;;;;;;;;;;;11.20;63.80;;;;;;4947057;28;86083;-54
2022/04/06 12:52:10;;;;;;;;;;;11.20;63.80;;;;;;4947885;28;88788;-54
2022/04/06 12:54:36;;;;;;;;;;;11.20;64.30;;;;;;4950248;28;86834;-53
2022/04/06 12:57:13;;;;;;;;;;;11.20;63.70;;;;;;4948932;28;87838;-52
2022/04/06 12:59:41;;;;;;;;;;;11.20;63.70;;;;;;4949833;28;88486;-52
2022/04/06 13:02:21;;;;;;;;;;;11.30;63.70;;;;;;4950298;28;86836;-52
2022/04/06 13:04:47;;;;;;;;;;;11.30;63.70;;;;;;4952609;28;88046;-54
2022/04/06 13:07:12;;;;;;;;;;;11.40;63.70;;;;;;4949634;28;87109;-53
2022/04/06 13:09:50;;;;;;;;;;;11.40;63.70;;;;;;4950088;28;87855;-52
2022/04/06 13:12:16;;;;;;;;;;;11.40;63.60;;;;;;4949591;28;88327;-52
2022/04/06 13:14:42;;;;;;;;;;;11.40;63.50;;;;;;4950511;28;86220;-56
2022/04/06 13:17:07;;;;;;;;;;;11.50;63.50;;;;;;4950198;28;86907;-54
2022/04/06 13:19:33;;;;;;;;;;;11.50;63.50;;;;;;4949705;28;87496;-54
2022/04/06 13:21:58;;;;;;;;;;;11.60;63.50;;;;;;4949125;28;88115;-53
2022/04/06 13:24:25;;;;;;;;;;;11.60;63.60;;;;;;4949771;28;88714;-52
2022/04/06 13:26:51;;;;;;;;;;;11.60;63.50;;;;;;4952281;28;88560;-52
2022/04/06 13:29:17;;;;;;;;;;;11.70;63.50;;;;;;4949918;28;87920;-52
2022/04/06 13:31:42;;;;;;;;;;;11.70;63.60;;;;;;4949621;28;87424;-52
2022/04/06 13:34:08;;;;;;;;;;;11.70;63.60;;;;;;4949488;28;86933;-56
2022/04/06 13:36:33;;;;;;;;;;;11.80;63.70;;;;;;4949046;28;87913;-56
2022/04/06 13:38:59;;;;;;;;;;;11.80;63.60;;;;;;4949176;28;87602;-55
2022/04/06 13:41:27;;;;;;;;;;;11.80;63.60;;;;;;4949023;28;86942;-54
2022/04/06 13:43:54;;;;;;;;;;;11.90;63.60;;;;;;4949074;28;87046;-54
2022/04/06 13:46:19;;;;;;;;;;;11.90;63.50;;;;;;4948449;28;88544;-54
2022/04/06 13:48:45;;;;;;;;;;;11.90;63.80;;;;;;4951681;28;86862;-53
2022/04/06 13:51:11;;;;;;;;;;;12.00;64.00;;;;;;4948751;28;86919;-54
2022/04/06 13:53:36;;;;;;;;;;;12.00;64.00;;;;;;4949011;28;86912;-53
2022/04/06 13:56:02;;;;;;;;;;;12.00;63.90;;;;;;4948684;28;87882;-55
2022/04/06 13:58:28;;;;;;;;;;;12.10;64.20;;;;;;4948394;28;88596;-53
2022/04/06 14:00:55;;;;;;;;;;;12.10;64.20;;;;;;4948675;28;86951;-54
2022/04/06 14:03:21;;;;;;;;;;;12.10;64.20;;;;;;4947844;28;87082;-55
2022/04/06 14:05:46;;;;;;;;;;;12.20;63.90;;;;;;4948281;28;88381;-56
2022/04/06 14:08:12;;;;;;;;;;;12.20;64.20;;;;;;4948213;28;87089;-56
2022/04/06 14:10:38;;;;;;;;;;;12.30;64.20;;;;;;4950495;28;87852;-54
2022/04/06 14:13:04;;;;;;;;;;;12.30;64.40;;;;;;4948414;28;86977;-54
2022/04/06 14:15:30;;;;;;;;;;;12.40;64.40;;;;;;4948445;28;88132;-57
2022/04/06 14:17:56;;;;;;;;;;;12.40;64.50;;;;;;4948084;28;88552;-54
2022/04/06 14:20:22;;;;;;;;;;;12.40;64.40;;;;;;4948539;28;87296;-53
2022/04/06 14:22:48;;;;;;;;;;;12.40;64.30;;;;;;4948444;28;88047;-54
2022/04/06 14:25:18;;;;;;;;;;;12.50;64.50;;;;;;4947975;28;89066;-55
2022/04/06 14:27:44;;;;;;;;;;;12.50;64.60;;;;;;4948847;28;86314;-55
2022/04/06 14:30:10;;;;;;;;;;;12.50;64.50;;;;;;4951054;28;87247;-53
2022/04/06 14:32:35;;;;;;;;;;;12.60;64.50;;;;;;4948338;28;86983;-53
2022/04/06 14:35:01;;;;;;;;;;;12.60;64.60;;;;;;4947576;28;88355;-56